Z2775 / RP-C8979 7700 Squawk Report (7th of October, 2022)

Time Lat Lon Altitude Heading Speed Vertical Rate
2022-10-07 03:51:02 GMT 14.480495 121.031052 0 329 16 0
2022-10-07 03:50:20 GMT 14.477932 121.026283 0 61 44 0
2022-10-07 03:49:55 GMT 14.473526 121.017242 100 61 131 -960
2022-10-07 03:49:49 GMT 14.471100 121.012604 150 62 137 -832
2022-10-07 03:49:38 GMT 14.468017 121.006454 275 62 140 -768
2022-10-07 03:49:30 GMT 14.465410 121.001442 375 61 142 -1024
2022-10-07 03:49:26 GMT 14.464737 121.000107 400 61 142 -512
2022-10-07 03:49:20 GMT 14.462337 120.995613 500 61 144 -1024
2022-10-07 03:49:15 GMT 14.460983 120.993050 550 60 144 -704
2022-10-07 03:49:06 GMT 14.457868 120.986893 675 62 145 -960
2022-10-07 03:48:59 GMT 14.455673 120.982582 775 62 144 -960
2022-10-07 03:48:55 GMT 14.454423 120.980339 825 62 144 -512
2022-10-07 03:48:48 GMT 14.452194 120.975670 900 61 142 -640
2022-10-07 03:48:43 GMT 14.451025 120.973640 950 60 141 -576
2022-10-07 03:48:37 GMT 14.448944 120.969704 1,025 61 141 -768
2022-10-07 03:48:32 GMT 14.447571 120.967094 1,100 62 141 -1024
2022-10-07 03:48:27 GMT 14.445532 120.963135 1,175 63 141 -512
2022-10-07 03:48:23 GMT 14.444504 120.960754 1,200 63 141 -640
2022-10-07 03:48:16 GMT 14.442398 120.956635 1,300 62 146 -960
2022-10-07 03:48:12 GMT 14.441208 120.954407 1,350 62 146 -832
2022-10-07 03:48:00 GMT 14.437775 120.947540 1,500 63 148 -832
2022-10-07 03:47:54 GMT 14.435570 120.943092 1,575 62 152 -896
2022-10-07 03:47:51 GMT 14.434341 120.940865 1,625 62 154 -896
2022-10-07 03:47:43 GMT 14.431595 120.935181 1,775 62 157 -832
2022-10-07 03:47:40 GMT 14.430728 120.933502 1,825 62 158 -1344
2022-10-07 03:47:32 GMT 14.428168 120.928825 1,925 61 161 -1024
2022-10-07 03:47:28 GMT 14.426651 120.926086 2,000 61 162 -1536
2022-10-07 03:47:23 GMT 14.424408 120.921776 2,075 61 162 -896
2022-10-07 03:47:18 GMT 14.422668 120.918510 2,150 61 164 -832
2022-10-07 03:47:12 GMT 14.420471 120.914246 2,250 61 164 -896
2022-10-07 03:47:08 GMT 14.419098 120.911499 2,300 62 165 -1088
2022-10-07 03:47:01 GMT 14.416669 120.907043 2,425 61 167 -1152
2022-10-07 03:46:56 GMT 14.414795 120.903404 2,500 61 171 -1216
2022-10-07 03:46:49 GMT 14.412387 120.898949 2,575 61 178 -448
2022-10-07 03:46:45 GMT 14.410858 120.895920 2,625 62 181 -832
2022-10-07 03:46:40 GMT 14.408112 120.890717 2,725 62 181 -1216
2022-10-07 03:46:34 GMT 14.406381 120.887482 2,800 62 180 -1024
2022-10-07 03:46:29 GMT 14.403854 120.882332 2,900 61 179 -832
2022-10-07 03:46:25 GMT 14.402252 120.879395 2,975 61 180 -896
2022-10-07 03:46:17 GMT 14.399551 120.874474 3,075 61 181 -1088
2022-10-07 03:46:14 GMT 14.397995 120.871536 3,125 62 182 -896
2022-10-07 03:46:08 GMT 14.395395 120.866188 3,250 62 183 -2240
2022-10-07 03:46:02 GMT 14.393692 120.862961 3,325 62 182 -896
2022-10-07 03:45:57 GMT 14.391298 120.857994 3,425 63 181 -960
2022-10-07 03:45:53 GMT 14.389762 120.854912 3,500 63 181 -896
2022-10-07 03:45:45 GMT 14.387009 120.849373 3,600 63 182 -1088
2022-10-07 03:45:42 GMT 14.385269 120.846107 3,675 60 183 -1024
2022-10-07 03:45:35 GMT 14.382407 120.841660 3,775 48 186 -1152
2022-10-07 03:45:31 GMT 14.380005 120.839241 3,875 39 186 -1024
2022-10-07 03:45:25 GMT 14.375052 120.836121 3,950 21 188 -832
2022-10-07 03:45:20 GMT 14.371281 120.834862 4,000 10 191 -768
2022-10-07 03:45:13 GMT 14.365648 120.834671 4,050 355 193 64
2022-10-07 03:45:10 GMT 14.362015 120.835167 4,050 348 196 576
2022-10-07 03:45:02 GMT 14.355453 120.837563 4,050 336 204 0
2022-10-07 03:44:58 GMT 14.352567 120.839058 4,050 331 208 0
2022-10-07 03:44:52 GMT 14.346542 120.842697 4,025 330 214 64
2022-10-07 03:44:48 GMT 14.342791 120.844887 4,025 330 218 64
2022-10-07 03:44:38 GMT 14.333667 120.850380 4,050 330 226 -128
2022-10-07 03:44:30 GMT 14.327499 120.854156 4,025 330 230 0
2022-10-07 03:44:26 GMT 14.323891 120.856262 4,025 330 233 -64
2022-10-07 03:44:20 GMT 14.317703 120.860023 4,025 330 238 -192
2022-10-07 03:44:16 GMT 14.313975 120.862236 4,025 330 243 -64
2022-10-07 03:44:10 GMT 14.306900 120.866516 4,025 330 250 64
2022-10-07 03:44:06 GMT 14.302942 120.868935 4,025 330 254 -192
2022-10-07 03:43:58 GMT 14.295959 120.873192 4,025 330 263 -192
2022-10-07 03:43:55 GMT 14.291537 120.875771 4,025 331 268 -384
2022-10-07 03:43:48 GMT 14.284607 120.879913 4,050 330 273 -576
2022-10-07 03:43:43 GMT 14.279938 120.882660 4,100 330 275 -576
2022-10-07 03:43:38 GMT 14.272264 120.887245 4,175 329 275 -704
2022-10-07 03:43:34 GMT 14.267982 120.889992 4,225 328 277 -1280
2022-10-07 03:43:27 GMT 14.261215 120.895164 4,375 318 282 -1536
2022-10-07 03:43:23 GMT 14.257647 120.898712 4,475 312 284 -1600
2022-10-07 03:43:15 GMT 14.251921 120.906471 4,675 303 287 -1728
2022-10-07 03:43:12 GMT 14.249496 120.910698 4,775 299 289 -1536
2022-10-07 03:43:06 GMT 14.245102 120.918938 4,950 299 290 -1600
2022-10-07 03:43:02 GMT 14.242331 120.923912 5,050 299 290 -1472
2022-10-07 03:42:55 GMT 14.238188 120.931717 5,225 300 291 -1600
2022-10-07 03:42:51 GMT 14.235306 120.936935 5,350 300 292 -1536
2022-10-07 03:42:44 GMT 14.230833 120.945015 5,500 299 293 -1536
2022-10-07 03:42:39 GMT 14.228273 120.949837 5,625 299 294 -1408
2022-10-07 03:42:32 GMT 14.223617 120.958412 5,800 299 294 -1664
2022-10-07 03:42:29 GMT 14.221207 120.962929 5,900 299 295 -1728
2022-10-07 03:42:23 GMT 14.216400 120.971832 6,075 300 296 -1600
2022-10-07 03:42:18 GMT 14.213515 120.977112 6,175 300 297 -1472
2022-10-07 03:42:12 GMT 14.209372 120.984718 6,350 300 299 -1664
2022-10-07 03:42:08 GMT 14.206604 120.989494 6,450 300 299 -1664
2022-10-07 03:42:00 GMT 14.201797 120.998489 6,650 300 299 -1472
2022-10-07 03:41:56 GMT 14.199234 121.003273 6,750 300 299 -1664
2022-10-07 03:41:51 GMT 14.194615 121.011803 6,950 300 299 -1664
2022-10-07 03:41:46 GMT 14.191818 121.016869 7,075 300 298 -1664
2022-10-07 03:41:40 GMT 14.187539 121.024719 7,250 300 298 -1664
2022-10-07 03:41:36 GMT 14.184607 121.029869 7,350 300 297 -1600
2022-10-07 03:41:28 GMT 14.180008 121.038551 7,525 300 297 -1600
2022-10-07 03:41:25 GMT 14.177628 121.042862 7,625 300 298 -1664
2022-10-07 03:41:19 GMT 14.172821 121.051628 7,800 299 299 -1728
2022-10-07 03:41:14 GMT 14.170222 121.056419 7,900 300 299 -1664
2022-10-07 03:41:08 GMT 14.165753 121.064514 8,075 300 300 -1664
2022-10-07 03:41:04 GMT 14.163025 121.069618 8,200 300 301 -1536
2022-10-07 03:40:56 GMT 14.158398 121.078201 8,375 300 301 -1664
2022-10-07 03:40:53 GMT 14.155279 121.083984 8,475 300 301 -1280
2022-10-07 03:40:46 GMT 14.151169 121.091499 8,575 300 300 -768
2022-10-07 03:40:41 GMT 14.147877 121.097427 8,625 300 300 -576
2022-10-07 03:40:36 GMT 14.143641 121.104996 8,650 300 300 -320
2022-10-07 03:40:32 GMT 14.141006 121.109871 8,675 300 301 -448
2022-10-07 03:40:25 GMT 14.136099 121.118729 8,750 300 301 -448
2022-10-07 03:40:21 GMT 14.133682 121.123222 8,775 300 302 -576
2022-10-07 03:40:13 GMT 14.128697 121.132317 8,850 300 304 -576
2022-10-07 03:40:09 GMT 14.126129 121.137146 8,875 299 305 -448
2022-10-07 03:40:04 GMT 14.121482 121.145515 8,925 300 305 -448
2022-10-07 03:39:59 GMT 14.118363 121.151062 8,975 300 304 -384
2022-10-07 03:39:53 GMT 14.113754 121.159447 9,025 300 304 -384
2022-10-07 03:39:49 GMT 14.111194 121.164261 9,025 300 303 -512
2022-10-07 03:39:41 GMT 14.106352 121.172890 9,100 300 304 -512
2022-10-07 03:39:37 GMT 14.103607 121.178017 9,125 300 304 -704
2022-10-07 03:39:30 GMT 14.098811 121.186768 9,200 300 307 -448
2022-10-07 03:39:26 GMT 14.096250 121.191391 9,225 300 306 -384
2022-10-07 03:39:20 GMT 14.091431 121.200317 9,275 300 307 -448
2022-10-07 03:39:17 GMT 14.089005 121.204628 9,300 300 307 -512
2022-10-07 03:39:10 GMT 14.084054 121.213699 9,350 300 307 -448
2022-10-07 03:39:06 GMT 14.081268 121.218552 9,400 300 308 -576
2022-10-07 03:38:58 GMT 14.076324 121.227592 9,450 300 308 -512
2022-10-07 03:38:55 GMT 14.073905 121.232254 9,475 300 308 -384
2022-10-07 03:38:49 GMT 14.069092 121.240852 9,550 300 308 -704
2022-10-07 03:38:45 GMT 14.066224 121.246078 9,575 300 308 -448
2022-10-07 03:38:38 GMT 14.061722 121.254402 9,650 300 307 -384
2022-10-07 03:38:34 GMT 14.058609 121.259941 9,675 300 307 -512
2022-10-07 03:38:26 GMT 14.053702 121.268967 9,725 300 307 -512
2022-10-07 03:38:23 GMT 14.051234 121.273308 9,750 300 307 -320
2022-10-07 03:38:17 GMT 14.046253 121.282219 9,800 300 307 -448
2022-10-07 03:38:12 GMT 14.043732 121.286789 9,825 300 307 -448
2022-10-07 03:38:06 GMT 14.038742 121.296021 9,875 300 308 -576
2022-10-07 03:38:02 GMT 14.036012 121.300865 9,925 300 309 -512
2022-10-07 03:37:54 GMT 14.031310 121.309349 9,975 300 310 -384
2022-10-07 03:37:51 GMT 14.028580 121.314301 10,000 300 310 -512
2022-10-07 03:37:44 GMT 14.023956 121.322922 10,050 300 310 -320
2022-10-07 03:37:40 GMT 14.020203 121.329597 10,050 300 309 128
2022-10-07 03:37:34 GMT 14.015900 121.337273 10,050 300 309 -64
2022-10-07 03:37:29 GMT 14.012604 121.343140 10,050 300 308 64
2022-10-07 03:37:23 GMT 14.008484 121.350533 10,050 300 308 -128
2022-10-07 03:37:18 GMT 14.004915 121.357201 10,050 300 308 0
2022-10-07 03:37:11 GMT 14.000632 121.364716 10,050 300 308 0
2022-10-07 03:37:06 GMT 13.997234 121.371071 10,050 300 309 0
2022-10-07 03:37:02 GMT 13.993277 121.378304 10,075 300 309 128
2022-10-07 03:36:57 GMT 13.989785 121.384521 10,075 300 308 0
2022-10-07 03:36:51 GMT 13.985870 121.391541 10,075 300 308 64
2022-10-07 03:36:46 GMT 13.982244 121.398056 10,050 300 308 64
2022-10-07 03:36:39 GMT 13.978147 121.405434 10,050 300 308 0
2022-10-07 03:36:34 GMT 13.974563 121.412132 10,050 300 310 -64
2022-10-07 03:36:29 GMT 13.970233 121.419739 10,050 300 311 -64
2022-10-07 03:36:24 GMT 13.966975 121.425720 10,050 300 311 0
2022-10-07 03:36:19 GMT 13.962891 121.433022 10,050 300 310 128
2022-10-07 03:36:14 GMT 13.959091 121.439888 10,075 300 310 -64
2022-10-07 03:36:07 GMT 13.954964 121.447159 10,075 300 310 0
2022-10-07 03:36:03 GMT 13.951172 121.454239 10,050 300 310 0
2022-10-07 03:35:56 GMT 13.947423 121.460892 10,075 300 311 -64
2022-10-07 03:35:51 GMT 13.943985 121.467262 10,075 300 311 -64
2022-10-07 03:35:47 GMT 13.939881 121.474434 10,075 303 311 128
2022-10-07 03:35:42 GMT 13.935562 121.480995 10,050 306 310 128
2022-10-07 03:35:36 GMT 13.930431 121.487541 10,050 312 310 -64
2022-10-07 03:35:31 GMT 13.925125 121.493065 10,050 317 309 -128
2022-10-07 03:35:24 GMT 13.919449 121.498367 10,050 320 307 0
2022-10-07 03:35:20 GMT 13.914368 121.502632 10,075 322 306 64
2022-10-07 03:35:15 GMT 13.907822 121.507797 10,050 322 306 0
2022-10-07 03:35:09 GMT 13.901476 121.512932 10,050 322 306 0
2022-10-07 03:35:04 GMT 13.895424 121.517944 10,050 322 306 192
2022-10-07 03:34:57 GMT 13.887726 121.524132 10,050 322 306 0
2022-10-07 03:34:53 GMT 13.883606 121.527397 10,050 322 306 -64
2022-10-07 03:34:47 GMT 13.877595 121.532204 10,050 322 306 0
2022-10-07 03:34:41 GMT 13.871450 121.537315 10,050 322 306 128
2022-10-07 03:34:32 GMT 13.859894 121.546623 10,050 322 305 0
2022-10-07 03:34:27 GMT 13.854218 121.551270 10,050 322 306 64
2022-10-07 03:34:21 GMT 13.847580 121.556526 10,050 322 306 0
2022-10-07 03:34:14 GMT 13.840027 121.562729 10,050 322 305 0
2022-10-07 03:34:09 GMT 13.835418 121.566467 10,050 322 305 0
2022-10-07 03:34:04 GMT 13.830065 121.570801 10,075 322 305 64
2022-10-07 03:34:00 GMT 13.823687 121.575813 10,050 322 305 64
2022-10-07 03:33:54 GMT 13.817642 121.580818 10,050 322 305 0
2022-10-07 03:33:49 GMT 13.811829 121.585602 10,050 322 306 128
2022-10-07 03:33:44 GMT 13.806427 121.589813 10,050 322 306 0
2022-10-07 03:33:37 GMT 13.799992 121.595039 10,050 322 308 0
2022-10-07 03:33:32 GMT 13.794022 121.599808 10,050 322 308 0
2022-10-07 03:33:26 GMT 13.787613 121.604919 10,075 322 308 64
2022-10-07 03:33:22 GMT 13.782349 121.609276 10,075 322 306 -64
2022-10-07 03:33:17 GMT 13.775665 121.614723 10,075 322 306 0
2022-10-07 03:33:12 GMT 13.769806 121.619408 10,050 322 306 128
2022-10-07 03:33:06 GMT 13.763489 121.624527 10,050 322 307 -64
2022-10-07 03:33:01 GMT 13.757584 121.629166 10,050 322 308 -64
2022-10-07 03:32:54 GMT 13.751450 121.634277 10,075 322 308 0
2022-10-07 03:32:49 GMT 13.745805 121.638748 10,050 322 308 128
2022-10-07 03:32:45 GMT 13.739594 121.643753 10,050 322 309 128
2022-10-07 03:32:38 GMT 13.732398 121.649590 10,050 322 309 -128
2022-10-07 03:32:34 GMT 13.727277 121.653687 10,050 322 309 0
2022-10-07 03:32:28 GMT 13.721008 121.658714 10,050 322 310 -64
2022-10-07 03:32:23 GMT 13.714894 121.663658 10,075 322 309 -64
2022-10-07 03:32:17 GMT 13.709747 121.667763 10,050 322 309 192
2022-10-07 03:32:12 GMT 13.703024 121.673294 10,050 322 309 128
2022-10-07 03:32:07 GMT 13.697670 121.677582 10,050 322 309 64
2022-10-07 03:32:02 GMT 13.690641 121.683075 10,050 322 309 0
2022-10-07 03:31:57 GMT 13.685211 121.687508 10,050 322 309 64
2022-10-07 03:31:51 GMT 13.678304 121.693001 10,075 322 308 -128
2022-10-07 03:31:45 GMT 13.673355 121.697121 10,075 322 307 0
2022-10-07 03:31:39 GMT 13.665665 121.703278 10,050 322 307 0
2022-10-07 03:31:35 GMT 13.661266 121.706787 10,050 322 307 -128
2022-10-07 03:31:28 GMT 13.654266 121.712463 10,050 322 308 0
2022-10-07 03:31:25 GMT 13.648930 121.716660 10,050 322 308 0
2022-10-07 03:31:19 GMT 13.642552 121.721916 10,075 322 308 0
2022-10-07 03:31:14 GMT 13.636640 121.726494 10,075 322 307 -64
2022-10-07 03:31:08 GMT 13.630449 121.731453 10,075 322 307 0
2022-10-07 03:31:02 GMT 13.624237 121.736427 10,075 322 307 -64
2022-10-07 03:30:57 GMT 13.618252 121.741234 10,075 323 307 0
2022-10-07 03:30:51 GMT 13.611362 121.746925 10,050 323 307 -64
2022-10-07 03:30:46 GMT 13.605698 121.751198 10,075 322 307 -128
2022-10-07 03:30:36 GMT 13.594025 121.760674 10,075 322 308 0
2022-10-07 03:30:24 GMT 13.582123 121.770287 10,075 322 307 0
2022-10-07 03:30:20 GMT 13.577007 121.774391 10,075 322 307 0
2022-10-07 03:30:13 GMT 13.569465 121.780411 10,075 322 307 64
2022-10-07 03:30:07 GMT 13.560928 121.787239 10,050 322 307 128
2022-10-07 03:30:04 GMT 13.557967 121.789711 10,050 322 307 64
2022-10-07 03:29:53 GMT 13.545776 121.799454 10,075 322 307 -64
2022-10-07 03:29:47 GMT 13.540230 121.803780 10,050 323 307 128
2022-10-07 03:29:41 GMT 13.533463 121.809395 10,050 323 307 128
2022-10-07 03:29:31 GMT 13.520691 121.819389 10,050 323 307 64
2022-10-07 03:29:21 GMT 13.509384 121.828484 10,050 322 307 0
2022-10-07 03:29:09 GMT 13.497162 121.838287 10,050 322 307 0
2022-10-07 03:28:59 GMT 13.485019 121.848061 10,075 322 309 -256
2022-10-07 03:28:48 GMT 13.471985 121.858505 10,125 322 312 -448
2022-10-07 03:28:37 GMT 13.460999 121.867264 10,250 322 319 -832
2022-10-07 03:28:26 GMT 13.448104 121.877747 10,400 322 326 -1024
2022-10-07 03:28:17 GMT 13.435455 121.887817 10,550 322 334 -1024
2022-10-07 03:28:06 GMT 13.422034 121.898659 10,725 322 344 -1088
2022-10-07 03:27:55 GMT 13.408674 121.909454 10,900 322 351 -1088
2022-10-07 03:27:35 GMT 13.381348 121.931290 11,275 322 371 -1280
2022-10-07 03:27:29 GMT 13.373108 121.937820 11,400 322 373 -1856
2022-10-07 03:27:13 GMT 13.350763 121.955666 12,050 323 376 -2368
2022-10-07 03:27:02 GMT 13.336378 121.967178 12,450 323 379 -2432
2022-10-07 03:26:50 GMT 13.321518 121.978973 13,000 323 376 -3968
2022-10-07 03:26:41 GMT 13.306366 121.990959 13,725 322 377 -3840
2022-10-07 03:26:30 GMT 13.291946 122.003128 14,400 315 380 -3840
2022-10-07 03:26:17 GMT 13.277769 122.020378 15,175 302 387 -3904
2022-10-07 03:26:03 GMT 13.267639 122.042053 15,950 286 396 -3584
2022-10-07 03:25:58 GMT 13.264481 122.054459 16,325 281 400 -3392
2022-10-07 03:25:45 GMT 13.263245 122.076996 17,250 264 412 -3520
2022-10-07 03:25:41 GMT 13.264206 122.086662 17,250 256 416 -4160
2022-10-07 03:25:34 GMT 13.266769 122.098450 17,650 253 416 -4480
2022-10-07 03:25:25 GMT 13.274094 122.116730 18,425 243 415 -4672
2022-10-07 03:25:15 GMT 13.285031 122.133568 19,100 229 420 -3584
2022-10-07 03:25:03 GMT 13.300232 122.148888 19,750 220 423 -3776
2022-10-07 03:24:53 GMT 13.316666 122.160248 20,300 210 429 -2944
2022-10-07 03:24:43 GMT 13.336099 122.169220 20,900 197 433 -4096
2022-10-07 03:24:31 GMT 13.357373 122.174477 21,725 189 431 -5120
2022-10-07 03:24:20 GMT 13.379392 122.175728 22,625 177 427 -4864
2022-10-07 03:24:10 GMT 13.400894 122.172653 23,475 167 424 -4928
2022-10-07 03:24:00 GMT 13.419617 122.166687 24,300 157 420 -4928
2022-10-07 03:23:48 GMT 13.438385 122.156837 25,150 148 419 -4288
2022-10-07 03:23:39 GMT 13.454636 122.144295 25,950 137 417 -3968
2022-10-07 03:23:28 GMT 13.469238 122.128555 26,450 129 422 -1856
2022-10-07 03:23:20 GMT 13.477158 122.117722 26,575 125 426 -896
2022-10-07 03:23:16 GMT 13.481482 122.111450 26,650 126 429 -960
2022-10-07 03:23:07 GMT 13.495468 122.094566 26,775 134 437 -704
2022-10-07 03:23:01 GMT 13.504013 122.086296 26,850 138 440 -704
2022-10-07 03:22:56 GMT 13.511536 122.080124 26,900 142 441 -768
2022-10-07 03:22:49 GMT 13.521194 122.072693 26,950 143 442 -384
2022-10-07 03:22:44 GMT 13.529572 122.066345 26,950 143 440 192
2022-10-07 03:22:39 GMT 13.539067 122.059311 26,925 143 437 576
2022-10-07 03:22:35 GMT 13.547167 122.053284 26,900 143 435 576
2022-10-07 03:22:24 GMT 13.564810 122.039894 26,725 143 432 1344
2022-10-07 03:22:17 GMT 13.573883 122.033058 26,625 143 431 1024
2022-10-07 03:22:12 GMT 13.581985 122.027039 26,550 143 429 960
2022-10-07 03:22:07 GMT 13.590546 122.020508 26,450 143 429 1152
2022-10-07 03:22:01 GMT 13.599538 122.013779 26,325 143 429 1408
2022-10-07 03:21:57 GMT 13.608057 122.007317 26,200 143 428 1280
2022-10-07 03:21:52 GMT 13.616272 122.001137 26,075 143 428 1408
2022-10-07 03:21:46 GMT 13.624956 121.994553 25,950 143 428 1280
2022-10-07 03:21:41 GMT 13.633614 121.988091 25,850 143 427 1088
2022-10-07 03:21:34 GMT 13.643417 121.980537 25,725 143 426 1088
2022-10-07 03:21:29 GMT 13.650420 121.975418 25,650 143 425 1024
2022-10-07 03:21:24 GMT 13.659497 121.968384 25,550 143 423 320
2022-10-07 03:21:19 GMT 13.667679 121.962257 25,500 143 421 768
2022-10-07 03:21:14 GMT 13.675884 121.956146 25,425 143 419 1216
2022-10-07 03:21:09 GMT 13.683937 121.949928 25,325 143 417 1536
2022-10-07 03:21:03 GMT 13.693387 121.942894 25,175 143 417 1792
2022-10-07 03:20:57 GMT 13.700789 121.937210 25,025 143 417 1856
2022-10-07 03:20:51 GMT 13.709747 121.930435 24,875 143 419 1600
2022-10-07 03:20:48 GMT 13.717082 121.924873 24,750 143 418 1472
2022-10-07 03:20:41 GMT 13.726959 121.917557 24,600 143 417 1472
2022-10-07 03:20:37 GMT 13.734283 121.911964 24,525 143 416 1088
2022-10-07 03:20:31 GMT 13.743301 121.905197 24,425 143 414 1152
2022-10-07 03:20:26 GMT 13.750879 121.899338 24,325 143 413 1216
2022-10-07 03:20:19 GMT 13.759644 121.892792 24,200 143 412 1408
2022-10-07 03:20:14 GMT 13.767685 121.886803 24,050 143 412 1536
2022-10-07 03:20:10 GMT 13.776443 121.880096 23,950 143 412 1280
2022-10-07 03:20:05 GMT 13.784134 121.874275 23,850 143 410 1152
2022-10-07 03:19:59 GMT 13.793102 121.867531 23,725 143 409 1088
2022-10-07 03:19:54 GMT 13.800085 121.862282 23,625 143 409 1408
2022-10-07 03:19:48 GMT 13.809023 121.855385 23,500 143 407 1344
2022-10-07 03:19:42 GMT 13.816864 121.849648 23,375 143 406 1536
2022-10-07 03:19:37 GMT 13.825745 121.842827 23,225 143 406 1664
2022-10-07 03:19:33 GMT 13.833230 121.837219 23,100 143 405 1600
2022-10-07 03:19:25 GMT 13.842590 121.830093 22,925 143 405 1536
2022-10-07 03:19:22 GMT 13.848406 121.825462 22,825 142 404 1472
2022-10-07 03:19:16 GMT 13.858229 121.817421 22,675 139 402 1472
2022-10-07 03:19:11 GMT 13.863922 121.812195 22,575 137 400 1728
2022-10-07 03:19:05 GMT 13.872849 121.803146 22,400 134 399 1600
2022-10-07 03:19:01 GMT 13.878113 121.797272 22,275 132 397 1536
2022-10-07 03:18:54 GMT 13.885483 121.788658 22,150 129 396 1216
2022-10-07 03:18:50 GMT 13.891002 121.781807 22,050 129 394 1216
2022-10-07 03:18:42 GMT 13.899474 121.771255 21,900 129 392 1408
2022-10-07 03:18:38 GMT 13.903152 121.766685 21,825 129 392 1408
2022-10-07 03:18:32 GMT 13.912170 121.755653 21,650 129 390 1408
2022-10-07 03:18:28 GMT 13.915441 121.751648 21,575 129 389 1536
2022-10-07 03:18:21 GMT 13.924850 121.740021 21,350 129 389 1856
2022-10-07 03:18:18 GMT 13.928290 121.735741 21,275 129 388 1856
2022-10-07 03:18:07 GMT 13.940254 121.720856 20,975 129 388 1600
2022-10-07 03:17:58 GMT 13.949249 121.709808 20,750 129 387 1728
2022-10-07 03:17:55 GMT 13.953003 121.705215 20,675 129 386 1792
2022-10-07 03:17:46 GMT 13.964996 121.690300 20,375 129 385 1472
2022-10-07 03:17:38 GMT 13.973465 121.679741 20,200 129 383 1344
2022-10-07 03:17:35 GMT 13.976890 121.675659 20,125 129 382 1536
2022-10-07 03:17:26 GMT 13.985735 121.664528 19,925 129 380 1728
2022-10-07 03:17:23 GMT 13.989029 121.660416 19,825 129 380 1664
2022-10-07 03:17:17 GMT 13.997818 121.649529 19,600 129 378 1792
2022-10-07 03:17:14 GMT 14.001892 121.644463 19,500 129 379 1664
2022-10-07 03:17:06 GMT 14.009674 121.634804 19,300 129 377 1664
2022-10-07 03:17:02 GMT 14.013620 121.629974 19,200 129 377 1792
2022-10-07 03:16:54 GMT 14.021860 121.619812 18,975 129 376 2048
2022-10-07 03:16:51 GMT 14.025956 121.614746 18,850 129 376 1856
2022-10-07 03:16:44 GMT 14.033870 121.604919 18,625 129 376 1792
2022-10-07 03:16:41 GMT 14.037920 121.600006 18,525 129 375 1664
2022-10-07 03:16:34 GMT 14.045517 121.590523 18,350 129 373 1856
2022-10-07 03:16:30 GMT 14.049637 121.585503 18,225 129 372 1664
2022-10-07 03:16:22 GMT 14.057519 121.575623 18,050 129 371 1792
2022-10-07 03:16:18 GMT 14.061476 121.570656 17,925 129 370 2176
2022-10-07 03:16:09 GMT 14.073349 121.556000 17,525 129 370 2176
2022-10-07 03:16:02 GMT 14.080582 121.546860 17,300 129 370 1728
2022-10-07 03:15:57 GMT 14.085869 121.540352 17,150 129 370 1856
2022-10-07 03:15:51 GMT 14.092712 121.532013 16,975 129 367 1792
2022-10-07 03:15:46 GMT 14.097228 121.526283 16,850 129 367 1664
2022-10-07 03:15:40 GMT 14.104769 121.517029 16,675 129 364 1920
2022-10-07 03:15:36 GMT 14.108688 121.512054 16,550 129 362 1664
2022-10-07 03:15:29 GMT 14.116128 121.502769 16,350 129 361 2048
2022-10-07 03:15:26 GMT 14.119899 121.498138 16,225 129 360 2112
2022-10-07 03:15:15 GMT 14.131348 121.483788 15,850 129 359 1728
2022-10-07 03:15:08 GMT 14.140149 121.472893 15,575 129 356 2048
2022-10-07 03:15:04 GMT 14.142517 121.470001 15,500 129 356 2304
2022-10-07 03:14:54 GMT 14.154161 121.455643 15,075 129 355 2304
2022-10-07 03:14:43 GMT 14.165008 121.442001 14,725 129 353 1920
2022-10-07 03:14:35 GMT 14.173574 121.431358 14,425 129 352 2368
2022-10-07 03:14:32 GMT 14.176320 121.427979 14,350 129 352 2112
2022-10-07 03:14:22 GMT 14.187632 121.413910 13,950 129 348 1984
2022-10-07 03:14:11 GMT 14.198852 121.399940 13,600 129 345 1856
2022-10-07 03:14:00 GMT 14.209808 121.386375 13,200 129 342 2560
2022-10-07 03:13:51 GMT 14.218735 121.375252 12,850 129 340 2176
2022-10-07 03:13:48 GMT 14.220291 121.373161 12,800 129 340 1792
2022-10-07 03:13:39 GMT 14.230740 121.360138 12,450 129 335 2368
2022-10-07 03:13:28 GMT 14.241760 121.346741 11,975 129 334 2752
2022-10-07 03:13:16 GMT 14.252061 121.333824 11,550 129 332 2304
2022-10-07 03:13:07 GMT 14.262680 121.320648 11,125 129 328 2368
2022-10-07 03:12:56 GMT 14.273209 121.307388 10,650 129 327 2688
2022-10-07 03:12:44 GMT 14.283437 121.294556 10,200 129 325 2432
2022-10-07 03:12:33 GMT 14.293945 121.281677 9,775 129 322 2240
2022-10-07 03:12:24 GMT 14.303687 121.269501 9,375 129 318 2816
2022-10-07 03:12:13 GMT 14.313995 121.256622 8,825 129 318 3072
2022-10-07 03:12:01 GMT 14.324356 121.243866 8,350 129 317 2496
2022-10-07 03:11:52 GMT 14.333908 121.231903 7,900 129 312 2432
2022-10-07 03:11:41 GMT 14.343887 121.219353 7,375 129 311 3072
2022-10-07 03:11:29 GMT 14.354057 121.206955 6,825 129 309 2816
2022-10-07 03:11:19 GMT 14.363646 121.194954 6,375 129 306 2432
2022-10-07 03:11:09 GMT 14.373050 121.183151 6,075 129 295 1408
2022-10-07 03:10:58 GMT 14.382202 121.171623 5,875 129 280 1408
2022-10-07 03:10:46 GMT 14.390945 121.160492 5,600 129 267 2304
2022-10-07 03:10:36 GMT 14.399538 121.149757 5,075 129 261 3072
2022-10-07 03:10:26 GMT 14.407638 121.139832 4,650 129 258 1728
2022-10-07 03:10:15 GMT 14.415344 121.130043 4,450 129 259 896
2022-10-07 03:10:03 GMT 14.424225 121.118919 4,275 129 257 896
2022-10-07 03:09:54 GMT 14.432144 121.109116 4,150 129 254 704
2022-10-07 03:09:43 GMT 14.440039 121.099358 4,025 130 237 832
2022-10-07 03:09:31 GMT 14.447440 121.090202 3,875 129 216 768
2022-10-07 03:09:21 GMT 14.454004 121.082298 3,825 129 198 448
2022-10-07 03:09:11 GMT 14.460159 121.074593 3,700 129 181 960
2022-10-07 03:09:00 GMT 14.465652 121.067726 3,525 129 166 960
2022-10-07 03:08:48 GMT 14.471136 121.060852 3,350 129 150 1088
2022-10-07 03:08:38 GMT 14.475837 121.054977 3,125 129 139 1728
2022-10-07 03:08:25 GMT 14.480260 121.049484 2,825 129 137 1664
2022-10-07 03:08:15 GMT 14.484729 121.043846 2,500 129 137 1856
2022-10-07 03:08:05 GMT 14.489182 121.038696 2,200 134 135 1536
2022-10-07 03:07:57 GMT 14.492294 121.035759 2,000 136 133 1792
2022-10-07 03:07:54 GMT 14.493993 121.033875 1,875 136 133 2048
2022-10-07 03:07:43 GMT 14.498788 121.029243 1,525 136 133 1920
2022-10-07 03:07:33 GMT 14.503815 121.024231 1,150 134 131 2304

Making use of Plane Finder data

You are free to use the raw flight data, aircraft information and images provided in this report for your own purposes provided the data is correctly attributed to Plane Finder. We ask that you please credit Plane Finder and link to planefinder.net in close proximity to the content.

Optionally one of the following logos (no smaller then 150x24px) can be used and must link to planefinder.net

Embedding the Plane Finder map

You are welcome to embed the Plane Finder playback map on your website to offer visitors a more interactive experience. We suggest using the following HTML code:

<iframe src="//planefinder.net/data/report/Z2775-RP-C8979-7700-squawk-2022-10-07/map" width="800" height="600" seamless="seamless"></iframe>

Where our data comes from

Plane Finder has a global network of data feeds and antenna radars that receive data broadcast directly from aircraft. The primary technologies used are ADS-B and MLAT. We also show feeds from the FAA and a FLARM glider feed.

Click here to find out more about the Plane Finder network.

How we collect our data